Tyndall Air Force Base
KPAM : now visible

Airfield :











YOU CAN JOIN US ON...

 
LOGIN :

Register | Disclaimer

   EN    FR    IT 

 









Legend :    VFR   Marginal VFR   IFR   Intensive IFR   Very Intensive IFR
Visi :
Ceiling :
>= 8 km
>= 3000ft
5 to 8 km
1000 to 3000 ft
1500m to 5 km
500 to 1000 ft
800 to 1500m
200 to 500 ft
< 800m
< 200 ft
Symbols :   Thunderstorms  Fog  Heavy snow  Heavy precipitations  Wind > 20 kt






- Airport Elevation : 17 ft


KPAM - Tyndall Air Force Base

CURRENT METAR :
  • 211956Z AUTO 28015KT 10SM CLR 24/14 A3001 RMK AO2 SLP165 T02350142 $

EXPIRED METARs :
  • 211856Z AUTO 27013KT 10SM CLR 24/14 A3002 RMK AO2 SLP169 T02390137 $
  • 211756Z AUTO 28012KT 10SM CLR 24/13 A3002 RMK AO2 SLP169 T02420128 10244 20168 $
  • 211702Z AUTO 28011KT 10SM CLR 25/11 A3003 RMK AO2 WSHFT 1658 SLP172 $

TAF TAF KPAM
Valid from the 21 at 19:00 until the 23 at 01:00 UTC


211900Z 2119/2301 30012G18KT 9999 SKC QNH3000INS WND 36012G18KT AFT 2203
BECMG 2213/2214 05006KT 9999 SKC QNH3012INS TX25/2120Z TN14/2211Z LAST NO AMDS AFT 2122 NEXT 2211
KZJX FIR / North America



MET'MAP, your aeronautical weather chart ! - Copyright ORBIFLY December 2007 - Disclaimer

ORBIFLY MET'MAP TEAM :

Programming & Development : Alexandra Zaïnal
Concept & original design : Baudouin d'Aumeries
Assistance for programming : Marc-Olivier Méhu
Technical & hardware support : Manuel Goepfert

Contact : metmap@orbifly.com




SOURCES & CREDITS :

   NOAA       Earth
Advisory